Hors Challenge

Ultra Trail Des Sources - Spa (80 km)

samedi 15 août 2020

Le Classement original se trouve sur : http://www.chronorace.be        
 
ULTRA TRAIL DES SOURCES - SPA
DISTANCE : 80.00 km
samedi 15 août 2020
 
Place Dos NOM Equipe Catégorie Pl/cat temps temps/km Vitesse
1 804 SIRINGO VINCENT EA (AALST) SEH 1 06:26:26 04:50 12.42
2 802 VAN LOKEREN STIJN ROBA H40 1 06:37:12 04:58 12.08
3 824 SOCCOL MANUELA ADD SEF 1 07:00:41 05:16 11.41
4 813 LIBERT DAMIEN SMAC/TRAKK SEH 2 07:11:17 05:23 11.13
5 809 PIETTE DAMIEN H-F H40 2 07:23:32 05:33 10.82
6 803 VAN DEN BROECK TIM OLSE A.C. H35 1 07:48:12 05:51 10.25
7 808 RALET HUGO HOKA SEH 3 08:49:39 06:37 9.06
8 818 DRISSI TOUFIK HERVE H35 2 09:03:35 06:48 8.83
9 806 ROMNÉE AMBROISE SMAC H35 3 09:09:09 06:52 8.74
10 807 ROBBROECKX JESSE AVKA H35 4 09:19:50 07:00 8.57
11 821 BOURNONVILLE RUDDY SMAC H45 1 09:50:59 07:23 8.12
12 822 BAETENS GEERT AC LYRA H50 1 10:29:40 07:52 7.62
13 826 MASSON CELINE RET W35 1 10:58:55 08:14 7.28
14 815 LALOY PHILIPPE ACTE H40 3 11:50:45 08:53 6.75
15 827 MARÉCHAL VEERLE LIERSE W55 1 11:50:50 08:53 6.75
16 814 LEJEUNE LAURENT RCB H45 2 12:18:35 09:14 6.50
17 801 VANDEWOESTYNE BART AZW H40 4 12:51:52 09:39 6.22
18 825 SEUTIN ANNE SMAC/CAPTR W40 1 13:07:23 09:51 6.10
19 811 MASQUELIN THIERRY ARCH H55 1 13:22:16 10:02 5.98
20 823 VERLUYTEN VERA LOOISE W50 1 13:31:28 10:09 5.92